Time;durP1;ratioP1;P1;durP2;ratioP2;P2;SDS_P1;SDS_P2;PMS_P1;PMS_P2;Temp;Humidity;BMP_temperature;BMP_pressure;BME280_temperature;BME280_humidity;BME280_pressure;Samples;Min_cycle;Max_cycle;Signal;HPM_P1;HPM_P2
2022/07/21 00:01:29;;;;;;;10.07;8.63;;;;;;;20.63;82.41;101615.47;5112640;28;20483;-59
2022/07/21 00:03:54;;;;;;;13.00;9.27;;;;;;;20.64;82.09;101615.41;5112872;28;20063;-60
2022/07/21 00:06:20;;;;;;;11.13;9.02;;;;;;;20.53;82.68;101617.66;5112609;28;20124;-59
2022/07/21 00:08:45;;;;;;;10.10;9.00;;;;;;;20.55;82.66;101615.81;5112746;28;20438;-59
2022/07/21 00:11:10;;;;;;;10.93;9.30;;;;;;;20.37;83.26;101621.91;5112726;28;20717;-59
2022/07/21 00:13:35;;;;;;;12.55;8.88;;;;;;;20.39;83.75;101622.69;5112777;28;20046;-61
2022/07/21 00:16:01;;;;;;;10.25;8.75;;;;;;;20.39;83.68;101620.91;5112903;28;20041;-58
2022/07/21 00:18:29;;;;;;;10.02;9.02;;;;;;;20.45;83.37;101615.31;5112821;28;20662;-59
2022/07/21 00:20:55;;;;;;;10.23;9.13;;;;;;;20.40;84.00;101611.13;5112539;28;20042;-60
2022/07/21 00:23:22;;;;;;;10.82;8.73;;;;;;;20.43;83.91;101619.81;5108955;28;20032;-59
2022/07/21 00:25:48;;;;;;;13.00;9.32;;;;;;;20.46;83.37;101622.34;5092033;28;20036;-59
2022/07/21 00:28:13;;;;;;;12.95;9.50;;;;;;;20.40;83.73;101625.28;5092172;28;20035;-59
2022/07/21 00:30:38;;;;;;;10.88;9.77;;;;;;;20.26;84.17;101622.28;5092113;28;20106;-58
2022/07/21 00:33:03;;;;;;;11.45;9.88;;;;;;;20.35;84.24;101619.25;5091830;28;20086;-59
2022/07/21 00:35:29;;;;;;;10.07;8.82;;;;;;;20.25;84.52;101615.28;5091698;28;20051;-59
2022/07/21 00:37:54;;;;;;;12.70;9.65;;;;;;;20.22;84.86;101623.38;5091787;28;20047;-59
2022/07/21 00:40:19;;;;;;;13.33;9.77;;;;;;;20.23;84.65;101621.56;5091778;28;20032;-60
2022/07/21 00:42:45;;;;;;;12.02;9.88;;;;;;;20.21;84.82;101624.28;5091730;28;20615;-59
2022/07/21 00:45:11;;;;;;;10.73;9.63;;;;;;;20.17;85.08;101620.03;5091807;28;20068;-60
2022/07/21 00:47:37;;;;;;;11.90;10.52;;;;;;;20.06;85.92;101616.94;5091719;28;20075;-59
2022/07/21 00:50:06;;;;;;;13.05;9.80;;;;;;;20.02;85.96;101616.19;5091496;28;20102;-59
2022/07/21 00:52:32;;;;;;;11.52;10.27;;;;;;;20.01;85.88;101619.78;5091686;28;20032;-59
2022/07/21 00:54:57;;;;;;;12.13;10.07;;;;;;;19.98;86.30;101619.03;5091667;28;20386;-59
2022/07/21 00:57:23;;;;;;;11.20;10.10;;;;;;;20.02;85.83;101623.31;5091525;28;20462;-59
2022/07/21 00:59:49;;;;;;;12.45;11.20;;;;;;;19.95;86.52;101621.81;5091266;28;20035;-59
2022/07/21 01:02:15;;;;;;;12.80;10.30;;;;;;;19.86;87.11;101614.22;5091609;28;20047;-59
2022/07/21 01:04:41;;;;;;;12.27;10.77;;;;;;;19.94;86.71;101615.63;5091485;28;20031;-58
2022/07/21 01:07:07;;;;;;;12.30;10.98;;;;;;;20.00;86.66;101599.44;5091620;28;20422;-58
2022/07/21 01:09:34;;;;;;;13.73;10.13;;;;;;;19.95;86.86;101601.41;5091567;28;20114;-58
2022/07/21 01:11:59;;;;;;;11.98;10.68;;;;;;;19.93;86.98;101594.44;5092349;28;20057;-59
2022/07/21 01:14:25;;;;;;;12.35;10.48;;;;;;;19.97;86.98;101596.03;5095826;28;20032;-58
2022/07/21 01:16:51;;;;;;;14.88;11.27;;;;;;;19.92;87.35;101596.22;5095673;28;20042;-59
2022/07/21 01:19:16;;;;;;;12.60;10.85;;;;;;;19.92;87.63;101603.31;5095820;28;20439;-58
2022/07/21 01:21:45;;;;;;;14.23;10.75;;;;;;;19.91;87.18;101597.19;5095617;28;20047;-59
2022/07/21 01:24:11;;;;;;;13.00;11.13;;;;;;;19.93;87.08;101589.97;5095229;28;20459;-59
2022/07/21 01:26:45;;;;;;;12.50;11.20;;;;;;;19.87;87.50;101590.25;5095471;28;20035;-60
2022/07/21 01:29:11;;;;;;;13.27;10.68;;;;;;;19.83;87.86;101582.44;5095605;28;20032;-59
2022/07/21 01:31:42;;;;;;;17.27;11.52;;;;;;;19.83;87.52;101593.06;5095093;28;20063;-59
2022/07/21 01:34:08;;;;;;;12.65;11.32;;;;;;;19.79;88.71;101597.63;5095272;28;20032;-59
2022/07/21 01:36:34;;;;;;;14.85;12.05;;;;;;;19.70;88.98;101606.00;5095260;28;20059;-59
2022/07/21 01:41:45;;;;;;;13.48;11.73;;;;;;;19.68;89.09;101600.72;5095264;28;20217;-59
2022/07/21 01:44:13;;;;;;;13.15;10.98;;;;;;;19.74;88.87;101587.19;5095094;28;20057;-59
2022/07/21 01:46:43;;;;;;;14.25;10.70;;;;;;;19.79;88.36;101593.19;5095249;28;20111;-59
2022/07/21 01:49:09;;;;;;;14.77;11.77;;;;;;;19.71;88.64;101597.97;5095126;28;20042;-59
2022/07/21 01:51:35;;;;;;;14.27;11.48;;;;;;;19.72;88.84;101594.38;5094977;28;20028;-58
2022/07/21 01:54:00;;;;;;;12.43;11.13;;;;;;;19.83;88.68;101598.38;5095142;28;20036;-58
2022/07/21 01:56:26;;;;;;;17.60;11.73;;;;;;;19.80;88.78;101589.63;5094967;28;20035;-58
2022/07/21 01:58:54;;;;;;;15.57;12.00;;;;;;;19.88;88.17;101596.44;5094271;28;20442;-59
2022/07/21 02:01:22;;;;;;;12.38;11.07;;;;;;;19.79;88.61;101598.50;5094850;28;20040;-59
2022/07/21 02:03:48;;;;;;;15.45;12.30;;;;;;;19.86;88.12;101592.97;5094872;28;20115;-59
2022/07/21 02:06:13;;;;;;;14.40;11.93;;;;;;;19.77;88.34;101589.72;5094704;28;20036;-59
2022/07/21 02:08:39;;;;;;;15.18;12.25;;;;;;;19.59;89.53;101584.28;5094879;28;20116;-58
2022/07/21 02:11:05;;;;;;;15.43;13.77;;;;;;;19.63;89.53;101602.69;5094877;28;20044;-58
2022/07/21 02:13:30;;;;;;;14.52;12.48;;;;;;;19.59;90.12;101592.25;5094598;28;20040;-57
2022/07/21 02:15:56;;;;;;;14.93;13.02;;;;;;;19.62;90.03;101602.75;5094540;28;20044;-58
2022/07/21 02:18:21;;;;;;;14.80;12.67;;;;;;;19.59;90.36;101589.59;5094539;28;20373;-59
2022/07/21 02:20:50;;;;;;;14.88;13.27;;;;;;;19.55;90.41;101588.88;5094499;28;20333;-59
2022/07/21 02:23:16;;;;;;;16.50;13.13;;;;;;;19.52;90.51;101594.28;5094358;28;20055;-59
2022/07/21 02:25:42;;;;;;;16.50;12.88;;;;;;;19.62;90.15;101593.00;5094379;28;20032;-58
2022/07/21 02:28:08;;;;;;;17.13;13.20;;;;;;;19.48;90.89;101580.22;5093987;28;20097;-58
2022/07/21 02:30:33;;;;;;;14.55;12.95;;;;;;;19.59;90.16;101582.50;5094333;28;20086;-58
2022/07/21 02:32:58;;;;;;;16.20;13.68;;;;;;;19.50;90.67;101568.72;5094277;28;20052;-60
2022/07/21 02:35:23;;;;;;;14.53;13.03;;;;;;;19.61;90.40;101577.13;5094281;28;20531;-60
2022/07/21 02:37:49;;;;;;;14.70;13.20;;;;;;;19.57;90.31;101581.69;5094302;28;20280;-59
2022/07/21 02:40:14;;;;;;;15.93;14.13;;;;;;;19.47;90.63;101572.31;5094154;28;20500;-59
2022/07/21 02:42:39;;;;;;;16.92;14.27;;;;;;;19.45;91.54;101582.13;5094053;28;20055;-59
2022/07/21 02:45:07;;;;;;;16.08;13.40;;;;;;;19.45;90.96;101583.00;5093999;28;20032;-59
2022/07/21 02:47:32;;;;;;;16.13;14.27;;;;;;;19.44;91.21;101573.31;5093903;28;20352;-59
2022/07/21 02:49:58;;;;;;;18.05;14.20;;;;;;;19.40;91.50;101578.78;5093856;28;20040;-59
2022/07/21 02:52:23;;;;;;;18.33;14.27;;;;;;;19.36;91.61;101570.09;5094017;28;20032;-59
2022/07/21 02:54:48;;;;;;;18.33;15.63;;;;;;;19.37;92.02;101573.59;5093892;28;20481;-58
2022/07/21 02:57:13;;;;;;;19.85;14.60;;;;;;;19.43;91.97;101578.66;5093848;28;20305;-58
2022/07/21 02:59:39;;;;;;;19.73;15.20;;;;;;;19.40;91.98;101579.63;5093399;28;20051;-59
2022/07/21 03:02:04;;;;;;;18.13;15.90;;;;;;;19.48;91.10;101574.91;5093670;28;20059;-59
2022/07/21 03:04:29;;;;;;;19.67;15.00;;;;;;;19.42;91.89;101580.44;5093755;28;20274;-59
2022/07/21 03:06:54;;;;;;;18.30;14.85;;;;;;;19.51;91.30;101575.75;5093660;28;20062;-59
2022/07/21 03:09:20;;;;;;;21.15;15.93;;;;;;;19.45;91.80;101572.38;5093908;28;20061;-59
2022/07/21 03:11:45;;;;;;;17.88;15.38;;;;;;;19.56;90.97;101579.13;5093599;28;20043;-59
2022/07/21 03:14:10;;;;;;;18.10;15.18;;;;;;;19.61;90.65;101575.34;5093616;28;20028;-59
2022/07/21 03:16:35;;;;;;;18.77;15.57;;;;;;;19.61;90.46;101571.81;5108688;28;20088;-58
2022/07/21 03:19:01;;;;;;;20.07;16.33;;;;;;;19.56;90.71;101566.69;5113948;28;20280;-59
2022/07/21 03:21:26;;;;;;;19.17;15.77;;;;;;;19.49;91.29;101567.81;5113725;28;20350;-58
2022/07/21 03:23:51;;;;;;;19.17;15.17;;;;;;;19.54;90.54;101563.25;5113746;28;20082;-57
2022/07/21 03:26:17;;;;;;;17.58;15.68;;;;;;;19.55;91.01;101570.28;5113487;28;20344;-59
2022/07/21 03:28:43;;;;;;;19.13;15.75;;;;;;;19.54;90.85;101575.66;5113322;28;20049;-59
2022/07/21 03:31:08;;;;;;;19.42;16.75;;;;;;;19.43;91.29;101568.91;5113212;28;20035;-59
2022/07/21 03:33:34;;;;;;;18.67;15.88;;;;;;;19.47;91.88;101572.31;5113345;28;20062;-59
2022/07/21 03:36:00;;;;;;;20.15;15.88;;;;;;;19.45;91.08;101568.84;5112758;28;20108;-60
2022/07/21 03:38:26;;;;;;;19.77;16.05;;;;;;;19.39;91.69;101571.75;5113698;28;20354;-59
2022/07/21 03:40:51;;;;;;;21.17;16.65;;;;;;;19.33;91.70;101570.19;5112843;28;20097;-59
2022/07/21 03:43:17;;;;;;;18.85;15.90;;;;;;;19.33;91.83;101570.19;5113227;28;20035;-59
2022/07/21 03:45:42;;;;;;;22.10;15.13;;;;;;;19.39;91.56;101566.47;5113307;28;20042;-59
2022/07/21 03:48:09;;;;;;;19.20;15.82;;;;;;;19.43;91.10;101571.56;5113178;28;20063;-59
2022/07/21 03:50:36;;;;;;;18.33;15.35;;;;;;;19.47;91.15;101575.84;5113128;28;20066;-59
2022/07/21 03:53:03;;;;;;;19.08;15.77;;;;;;;19.41;91.19;101576.06;5113186;28;20031;-58
2022/07/21 03:55:29;;;;;;;18.40;15.52;;;;;;;19.40;91.18;101581.44;5112718;28;20072;-58
2022/07/21 03:58:03;;;;;;;21.58;15.15;;;;;;;19.45;91.00;101584.78;5112930;28;20039;-59
2022/07/21 04:00:41;;;;;;;19.27;14.82;;;;;;;19.47;91.11;101586.47;5112751;28;20027;-58
2022/07/21 04:03:07;;;;;;;17.73;14.95;;;;;;;19.48;90.29;101582.00;5113052;28;20096;-58
2022/07/21 04:05:33;;;;;;;20.92;15.10;;;;;;;19.43;90.86;101583.97;5112481;28;20035;-59
2022/07/21 04:07:59;;;;;;;16.98;13.88;;;;;;;19.48;90.82;101590.84;5112726;28;20050;-58
2022/07/21 04:10:27;;;;;;;20.40;14.40;;;;;;;19.44;91.52;101583.06;5112593;28;20133;-59
2022/07/21 04:12:55;;;;;;;19.05;14.85;;;;;;;19.44;91.89;101607.81;5112604;28;20039;-59
2022/07/21 04:15:20;;;;;;;16.15;13.63;;;;;;;19.48;92.13;101598.81;5112443;28;20454;-59
2022/07/21 04:17:46;;;;;;;18.83;14.20;;;;;;;19.48;91.93;101600.59;5112710;28;20039;-58
2022/07/21 04:20:13;;;;;;;17.42;13.88;;;;;;;19.53;92.98;101597.81;5112646;28;20036;-58
2022/07/21 04:22:39;;;;;;;22.05;14.35;;;;;;;19.41;93.16;101588.47;5112507;28;20027;-58
2022/07/21 04:25:06;;;;;;;17.48;13.75;;;;;;;19.26;94.26;101587.28;5112685;28;20046;-58
2022/07/21 04:27:32;;;;;;;18.50;14.43;;;;;;;19.26;95.72;101589.06;5112429;28;20024;-59
2022/07/21 04:29:57;;;;;;;21.60;15.07;;;;;;;19.19;97.23;101584.91;5112475;28;20410;-59
2022/07/21 04:32:23;;;;;;;19.40;15.20;;;;;;;19.16;97.59;101585.03;5112351;28;20062;-59
2022/07/21 04:34:49;;;;;;;18.50;14.18;;;;;;;19.23;97.61;101581.19;5112381;28;20031;-59
2022/07/21 04:37:14;;;;;;;17.90;14.77;;;;;;;19.25;97.57;101587.31;5112242;28;20493;-59
2022/07/21 04:39:40;;;;;;;21.73;15.57;;;;;;;19.23;97.64;101581.19;5112130;28;20038;-58
2022/07/21 04:42:05;;;;;;;18.15;15.13;;;;;;;19.22;97.58;101582.16;5112141;28;20111;-58
2022/07/21 04:44:31;;;;;;;18.75;15.13;;;;;;;19.21;97.62;101583.06;5111852;28;20024;-58
2022/07/21 04:46:57;;;;;;;17.77;14.73;;;;;;;19.15;97.23;101583.28;5111247;28;20346;-60
2022/07/21 04:49:22;;;;;;;17.85;13.93;;;;;;;19.23;97.61;101589.16;5111966;28;20032;-54
2022/07/21 04:51:47;;;;;;;17.92;14.77;;;;;;;19.19;98.16;101585.78;5112091;28;20637;-53
2022/07/21 04:54:13;;;;;;;19.67;14.57;;;;;;;19.14;97.37;101603.66;5112046;28;20039;-49
2022/07/21 04:56:40;;;;;;;18.80;14.27;;;;;;;19.18;97.39;101601.75;5112071;28;20462;-51
2022/07/21 04:59:05;;;;;;;19.27;15.02;;;;;;;19.09;97.65;101606.47;5111940;28;20059;-51
2022/07/21 05:01:31;;;;;;;20.77;15.30;;;;;;;19.11;98.33;101595.81;5111434;28;20086;-51
2022/07/21 05:03:56;;;;;;;19.50;14.10;;;;;;;19.17;98.95;101597.38;5112057;28;20473;-50
2022/07/21 05:06:21;;;;;;;18.08;14.07;;;;;;;19.16;98.61;101600.94;5111969;28;20036;-52
2022/07/21 05:08:47;;;;;;;18.52;14.48;;;;;;;19.22;98.08;101603.38;5112050;28;20111;-53
2022/07/21 05:11:13;;;;;;;18.50;14.18;;;;;;;19.12;98.04;101597.53;5111908;28;20051;-53
2022/07/21 05:13:38;;;;;;;18.58;14.18;;;;;;;19.08;97.66;101590.59;5111815;28;20035;-50
2022/07/21 05:16:04;;;;;;;18.08;14.40;;;;;;;19.04;97.53;101591.66;5108310;28;20063;-58
2022/07/21 05:18:29;;;;;;;20.85;14.57;;;;;;;19.06;98.16;101595.09;5091822;28;20042;-52
2022/07/21 05:20:54;;;;;;;19.10;14.35;;;;;;;18.99;97.99;101594.47;5091376;28;20343;-56
2022/07/21 05:23:20;;;;;;;20.08;13.75;;;;;;;19.06;98.30;101590.66;5091606;28;20024;-57
2022/07/21 05:25:45;;;;;;;17.52;13.65;;;;;;;19.06;97.52;101593.31;5091227;28;20081;-52
2022/07/21 05:28:10;;;;;;;17.13;13.50;;;;;;;19.17;98.35;101590.28;5091203;28;20032;-48
2022/07/21 05:30:36;;;;;;;17.73;13.45;;;;;;;19.33;97.21;101586.13;5091349;28;20036;-51
2022/07/21 05:33:01;;;;;;;19.05;13.80;;;;;;;19.27;96.72;101585.47;5091234;28;20052;-51
2022/07/21 05:35:27;;;;;;;20.20;13.20;;;;;;;19.10;96.14;101572.84;5091479;28;20047;-51
2022/07/21 05:37:52;;;;;;;19.42;13.20;;;;;;;19.09;96.22;101585.25;5091301;28;20047;-53
2022/07/21 05:40:17;;;;;;;19.20;12.87;;;;;;;19.11;96.37;101577.22;5091119;28;20131;-49
2022/07/21 05:42:43;;;;;;;16.73;13.30;;;;;;;19.21;97.03;101580.41;5091294;28;20278;-52
2022/07/21 05:45:09;;;;;;;19.63;13.77;;;;;;;19.17;95.58;101578.78;5091262;28;20713;-51
2022/07/21 05:47:34;;;;;;;17.23;12.98;;;;;;;19.22;95.41;101582.16;5091182;28;20039;-51
2022/07/21 05:50:00;;;;;;;17.10;13.50;;;;;;;19.20;95.72;101582.22;5091033;28;20473;-49
2022/07/21 05:52:26;;;;;;;18.33;12.88;;;;;;;19.22;95.46;101575.03;5091075;28;20036;-49
2022/07/21 05:54:51;;;;;;;17.45;13.88;;;;;;;19.28;95.08;101581.91;5091116;28;20036;-52
2022/07/21 05:57:17;;;;;;;20.02;14.52;;;;;;;19.35;95.40;101580.75;5091141;28;20060;-54
2022/07/21 05:59:43;;;;;;;19.65;13.93;;;;;;;19.44;93.90;101585.69;5094678;28;20450;-53
2022/07/21 06:02:08;;;;;;;19.42;14.45;;;;;;;19.50;95.41;101582.84;5094512;28;20100;-53
2022/07/21 06:04:34;;;;;;;24.95;15.98;;;;;;;19.43;93.91;101589.28;5094886;28;20128;-54
2022/07/21 06:06:59;;;;;;;22.05;14.52;;;;;;;19.50;94.28;101584.66;5094687;28;20040;-54
2022/07/21 06:09:24;;;;;;;23.38;15.10;;;;;;;19.58;94.86;101580.75;5094673;28;20098;-51
2022/07/21 06:11:49;;;;;;;24.80;17.88;;;;;;;19.57;92.96;101584.34;5094652;28;20366;-53
2022/07/21 06:14:15;;;;;;;25.27;16.52;;;;;;;19.60;94.24;101576.25;5094741;28;20096;-55
2022/07/21 06:16:40;;;;;;;25.33;17.20;;;;;;;19.68;93.54;101587.44;5094819;28;20036;-57
2022/07/21 06:19:08;;;;;;;31.67;18.15;;;;;;;19.83;93.98;101577.13;5094622;28;20024;-52
2022/07/21 06:21:34;;;;;;;26.77;18.40;;;;;;;20.04;91.07;101581.59;5094368;28;20039;-62
2022/07/21 06:23:59;;;;;;;27.27;17.70;;;;;;;20.33;89.62;101575.06;5094333;28;20439;-62
2022/07/21 06:26:25;;;;;;;31.83;18.27;;;;;;;20.65;89.26;101579.88;5094326;28;20308;-54
2022/07/21 06:28:50;;;;;;;30.27;18.98;;;;;;;20.92;86.43;101577.81;5094314;28;20123;-64
2022/07/21 06:31:16;;;;;;;26.63;18.67;;;;;;;21.15;85.60;101566.97;5094074;28;20043;-64
2022/07/21 06:33:41;;;;;;;28.05;18.95;;;;;;;21.30;83.78;101573.44;5094305;28;20359;-59
2022/07/21 06:36:08;;;;;;;28.17;17.98;;;;;;;21.49;83.13;101573.44;5094189;28;20028;-59
2022/07/21 06:38:33;;;;;;;26.63;18.13;;;;;;;21.43;82.67;101574.59;5094096;28;20063;-59
2022/07/21 06:40:58;;;;;;;25.77;18.42;;;;;;;21.28;81.81;101577.13;5093834;28;20128;-61
2022/07/21 06:43:23;;;;;;;25.48;17.73;;;;;;;21.18;83.26;101582.81;5094029;28;20040;-61
2022/07/21 06:45:50;;;;;;;32.78;19.17;;;;;;;20.97;83.67;101589.09;5094034;28;20035;-59
2022/07/21 06:48:15;;;;;;;29.95;18.90;;;;;;;20.82;84.26;101589.78;5094085;28;20032;-60
2022/07/21 06:50:41;;;;;;;27.75;19.13;;;;;;;20.74;83.93;101597.25;5093953;28;20043;-59
2022/07/21 06:53:06;;;;;;;28.75;21.15;;;;;;;20.72;84.60;101597.31;5093579;28;20048;-59
2022/07/21 06:55:32;;;;;;;30.55;19.20;;;;;;;20.69;85.08;101596.59;5093832;28;20104;-59
2022/07/21 06:57:57;;;;;;;28.27;19.65;;;;;;;20.62;85.76;101593.31;5093846;28;20032;-59
2022/07/21 07:00:23;;;;;;;26.25;18.48;;;;;;;20.59;86.38;101595.25;5093834;28;20028;-59
2022/07/21 07:02:49;;;;;;;25.75;18.77;;;;;;;20.58;85.97;101610.34;5093692;28;20428;-59
2022/07/21 07:05:14;;;;;;;28.42;19.45;;;;;;;20.55;85.88;101609.63;5093800;28;20125;-59
2022/07/21 07:07:40;;;;;;;25.67;18.42;;;;;;;20.57;85.73;101610.41;5093802;28;20504;-61
2022/07/21 07:10:05;;;;;;;23.55;17.83;;;;;;;20.41;86.29;101616.38;5092664;28;20036;-62
2022/07/21 07:12:31;;;;;;;24.20;18.27;;;;;;;20.26;87.33;101611.66;5093616;28;20035;-59
2022/07/21 07:14:56;;;;;;;25.90;18.23;;;;;;;20.22;87.62;101626.03;5093542;28;20107;-60
2022/07/21 07:17:21;;;;;;;26.88;18.15;;;;;;;20.12;88.29;101614.00;5093144;28;20036;-56
2022/07/21 07:19:48;;;;;;;26.40;18.50;;;;;;;20.04;89.24;101614.34;5093466;28;20028;-56
2022/07/21 07:22:13;;;;;;;27.65;18.45;;;;;;;20.06;89.02;101609.84;5093179;28;20305;-57
2022/07/21 07:24:39;;;;;;;26.73;18.00;;;;;;;20.10;88.79;101610.56;5093268;28;20040;-56
2022/07/21 07:27:05;;;;;;;25.67;18.13;;;;;;;20.04;89.29;101603.72;5093260;28;20511;-57
2022/07/21 07:29:31;;;;;;;27.23;19.25;;;;;;;20.07;89.75;101608.03;5093156;28;20039;-57
2022/07/21 07:31:57;;;;;;;27.17;18.83;;;;;;;20.02;89.77;101604.69;5093047;28;20060;-56
2022/07/21 07:34:22;;;;;;;26.23;18.27;;;;;;;20.15;89.30;101614.75;5092964;28;20046;-57
2022/07/21 07:36:47;;;;;;;25.83;18.42;;;;;;;20.24;89.16;101612.66;5093126;28;20617;-57
2022/07/21 07:39:15;;;;;;;28.77;17.55;;;;;;;20.27;88.71;101608.06;5092800;28;20043;-57
2022/07/21 07:41:41;;;;;;;25.83;17.83;;;;;;;20.17;90.07;101604.06;5092899;28;20059;-55
2022/07/21 07:44:07;;;;;;;25.50;17.95;;;;;;;19.98;92.91;101619.91;5092846;28;20471;-56
2022/07/21 07:46:33;;;;;;;26.80;17.17;;;;;;;19.92;94.49;101614.81;5092877;28;20028;-56
2022/07/21 07:48:59;;;;;;;21.48;15.38;;;;;;;19.74;95.39;101597.81;5092866;28;20040;-57
2022/07/21 07:51:24;;;;;;;18.90;13.63;;;;;;;19.78;96.65;101615.38;5092552;28;20032;-56
2022/07/21 07:53:50;;;;;;;17.40;13.80;;;;;;;19.65;96.45;101621.22;5092604;28;20541;-56
2022/07/21 07:56:15;;;;;;;20.83;14.00;;;;;;;19.52;98.35;101623.50;5092617;28;20042;-58
2022/07/21 07:58:40;;;;;;;15.13;12.65;;;;;;;19.33;99.49;101627.72;5092523;28;20293;-59
2022/07/21 08:01:06;;;;;;;15.48;12.77;;;;;;;19.26;100.00;101619.13;5092417;28;20050;-58
2022/07/21 08:03:31;;;;;;;18.83;12.98;;;;;;;19.18;100.00;101618.53;5092579;28;20462;-58
2022/07/21 08:06:03;;;;;;;15.75;12.55;;;;;;;19.10;100.00;101623.25;5092445;28;20044;-55
2022/07/21 08:08:28;;;;;;;13.52;11.30;;;;;;;18.99;100.00;101630.75;5092345;28;20340;-56
2022/07/21 08:10:53;;;;;;;15.38;10.75;;;;;;;18.94;100.00;101622.06;5092294;28;20039;-54
2022/07/21 08:13:19;;;;;;;12.57;9.32;;;;;;;19.06;100.00;101617.19;5092525;28;20028;-54
2022/07/21 08:15:45;;;;;;;13.35;10.25;;;;;;;18.99;100.00;101626.31;5092195;28;20032;-53
2022/07/21 08:18:11;;;;;;;13.43;9.80;;;;;;;18.92;100.00;101622.13;5092120;28;20412;-57
2022/07/21 08:20:37;;;;;;;12.40;10.38;;;;;;;18.91;100.00;101628.34;5091832;28;20040;-54
2022/07/21 08:23:03;;;;;;;12.57;10.35;;;;;;;18.94;100.00;101632.69;5092157;28;20442;-53
2022/07/21 08:25:29;;;;;;;9.48;8.48;;;;;;;18.95;100.00;101624.69;5091902;28;20422;-54
2022/07/21 08:27:54;;;;;;;10.43;9.32;;;;;;;18.89;100.00;101630.19;5090751;27;20111;-54
2022/07/21 08:30:20;;;;;;;10.27;8.73;;;;;;;18.95;100.00;101623.81;5085327;28;20040;-54
2022/07/21 08:32:45;;;;;;;9.55;8.50;;;;;;;19.06;100.00;101619.84;5111825;28;20058;-53
2022/07/21 08:35:11;;;;;;;10.88;8.43;;;;;;;19.14;100.00;101619.56;5112237;28;20051;-52
2022/07/21 08:37:38;;;;;;;9.35;8.02;;;;;;;19.12;100.00;101626.72;5112547;28;20114;-52
2022/07/21 08:40:08;;;;;;;10.63;8.38;;;;;;;19.15;100.00;101631.06;5104977;28;20482;-53
2022/07/21 08:42:34;;;;;;;9.95;8.52;;;;;;;19.20;100.00;101631.75;5101951;28;20032;-56
2022/07/21 08:44:59;;;;;;;9.32;8.13;;;;;;;19.28;100.00;101624.38;5111683;28;20100;-57
2022/07/21 08:47:25;;;;;;;10.27;8.52;;;;;;;19.27;100.00;101634.13;5111936;28;20035;-56
2022/07/21 08:49:51;;;;;;;10.57;8.93;;;;;;;19.20;100.00;101631.75;5111789;28;20063;-56
2022/07/21 08:52:18;;;;;;;12.07;9.38;;;;;;;19.19;100.00;101627.38;5111688;28;20485;-55
2022/07/21 08:54:43;;;;;;;10.93;9.68;;;;;;;19.10;100.00;101636.53;5112067;28;20085;-56
2022/07/21 08:57:09;;;;;;;10.73;8.82;;;;;;;19.11;100.00;101628.50;5112025;28;20406;-56
2022/07/21 08:59:34;;;;;;;10.95;9.75;;;;;;;19.19;100.00;101630.91;5111581;28;20031;-56
2022/07/21 09:01:59;;;;;;;11.35;9.98;;;;;;;19.20;100.00;101629.09;5111782;28;20023;-57
2022/07/21 09:04:28;;;;;;;11.73;10.45;;;;;;;19.19;100.00;101630.91;5111765;28;20086;-56
2022/07/21 09:06:58;;;;;;;12.85;10.32;;;;;;;19.15;100.00;101631.06;5111862;28;20027;-56
2022/07/21 09:09:25;;;;;;;13.23;11.23;;;;;;;19.11;100.00;101633.81;5111992;28;20046;-57
2022/07/21 09:11:51;;;;;;;13.93;11.20;;;;;;;19.19;100.00;101632.69;5111968;28;20367;-57
2022/07/21 09:14:23;;;;;;;12.80;11.10;;;;;;;19.27;100.00;101635.91;5112010;28;20355;-58
2022/07/21 09:16:55;;;;;;;11.32;10.00;;;;;;;19.17;100.00;101626.56;5111530;28;20122;-56
2022/07/21 09:19:31;;;;;;;10.77;9.38;;;;;;;19.13;100.00;101634.63;5111806;28;20032;-57
2022/07/21 09:22:01;;;;;;;11.35;10.10;;;;;;;19.08;100.00;101643.66;5111910;28;20046;-57
2022/07/21 09:24:40;;;;;;;12.38;9.90;;;;;;;19.09;100.00;101648.06;5111818;28;20040;-56
2022/07/21 09:27:16;;;;;;;11.25;10.00;;;;;;;19.17;100.00;101646.00;5111503;28;20027;-57
2022/07/21 09:29:59;;;;;;;10.30;9.20;;;;;;;19.18;100.00;101649.53;5111675;28;20024;-56
2022/07/21 09:32:28;;;;;;;9.80;8.80;;;;;;;19.15;100.00;101653.16;5111618;28;20068;-57
2022/07/21 09:35:07;;;;;;;10.40;9.30;;;;;;;19.05;100.00;101660.56;5115722;28;20031;-56
2022/07/21 09:37:33;;;;;;;11.98;8.73;;;;;;;19.06;100.00;101659.63;5115418;28;20031;-56
2022/07/21 09:40:06;;;;;;;9.25;8.27;;;;;;;19.06;100.00;101658.75;5115174;28;20058;-56
2022/07/21 09:42:35;;;;;;;7.72;7.03;;;;;;;18.92;100.00;101656.59;5115845;28;20042;-55
2022/07/21 09:45:09;;;;;;;8.10;7.00;;;;;;;18.94;100.00;101659.22;5115369;28;20411;-56
2022/07/21 09:47:37;;;;;;;7.55;6.55;;;;;;;18.82;100.00;101664.94;5115752;28;20046;-56
2022/07/21 09:50:03;;;;;;;8.60;6.47;;;;;;;18.84;100.00;101661.34;5105485;27;20501;-56
2022/07/21 09:52:32;;;;;;;7.60;6.05;;;;;;;18.75;100.00;101664.28;5094713;28;20036;-58
2022/07/21 09:55:09;;;;;;;7.70;5.75;;;;;;;18.70;100.00;101666.25;5094858;28;20035;-57
2022/07/21 09:57:36;;;;;;;6.72;6.05;;;;;;;18.60;100.00;101668.31;5095104;28;20086;-57
2022/07/21 10:00:04;;;;;;;6.95;6.25;;;;;;;18.52;100.00;101673.00;5094919;28;20044;-57
2022/07/21 10:02:31;;;;;;;7.35;6.65;;;;;;;18.52;100.00;101669.47;5094920;28;20512;-57
2022/07/21 10:05:06;;;;;;;8.85;6.90;;;;;;;18.41;100.00;101670.69;5094845;28;20084;-57
2022/07/21 10:07:36;;;;;;;8.23;7.22;;;;;;;18.43;100.00;101678.59;5094596;28;20043;-55
2022/07/21 10:10:01;;;;;;;9.93;7.72;;;;;;;18.51;100.00;101676.56;5094905;28;20126;-56
2022/07/21 10:12:27;;;;;;;8.05;7.35;;;;;;;18.53;100.00;101681.81;5094862;28;20518;-55
2022/07/21 10:14:54;;;;;;;8.57;7.78;;;;;;;18.59;100.00;101689.56;5094844;28;20487;-56
2022/07/21 10:17:21;;;;;;;8.10;7.30;;;;;;;18.64;100.00;101690.31;5094629;28;20404;-57
2022/07/21 10:20:12;;;;;;;8.43;7.72;;;;;;;18.64;100.00;101691.16;5094409;28;20595;-57
2022/07/21 10:23:11;;;;;;;8.80;7.90;;;;;;;18.74;100.00;101694.38;5094114;28;20032;-56
2022/07/21 10:25:37;;;;;;;8.50;7.65;;;;;;;18.94;100.00;101693.69;5094338;28;20035;-57
2022/07/21 10:28:13;;;;;;;8.90;8.00;;;;;;;19.01;100.00;101685.47;5094373;28;20039;-57
2022/07/21 10:30:49;;;;;;;9.40;7.95;;;;;;;19.18;100.00;101706.13;5094393;28;20046;-57
2022/07/21 10:33:18;;;;;;;9.38;8.25;;;;;;;19.27;100.00;101704.91;5096123;28;20088;-57
2022/07/21 10:35:47;;;;;;;9.48;8.57;;;;;;;19.32;100.00;101705.63;5094352;28;20119;-57
2022/07/21 10:38:28;;;;;;;9.65;8.52;;;;;;;19.54;100.00;101703.97;5094249;28;20039;-57
2022/07/21 10:40:54;;;;;;;10.17;8.40;;;;;;;19.68;100.00;101711.41;5094057;28;20036;-58
2022/07/21 10:43:25;;;;;;;12.05;8.57;;;;;;;19.67;100.00;101713.19;5093894;28;20692;-57
2022/07/21 10:45:53;;;;;;;11.70;9.05;;;;;;;19.66;100.00;101706.16;5092715;28;20516;-57
2022/07/21 10:48:36;;;;;;;11.40;9.48;;;;;;;19.58;100.00;101708.22;5094189;28;20036;-58
2022/07/21 10:51:16;;;;;;;10.10;9.10;;;;;;;19.34;100.00;101711.75;5093960;28;20024;-57
2022/07/21 10:53:44;;;;;;;10.07;8.13;;;;;;;19.31;100.00;101720.69;5093528;28;20506;-57
2022/07/21 10:56:27;;;;;;;9.60;7.28;;;;;;;19.22;100.00;101717.50;5094114;28;20024;-56
2022/07/21 10:58:52;;;;;;;9.10;7.10;;;;;;;19.08;100.00;101710.00;5093775;28;20032;-57
2022/07/21 11:01:24;;;;;;;8.57;7.40;;;;;;;19.00;100.00;101712.94;5093649;28;20040;-57
2022/07/21 11:04:08;;;;;;;9.80;7.78;;;;;;;18.96;100.00;101721.03;5093621;28;20404;-56
2022/07/21 11:06:35;;;;;;;9.10;7.55;;;;;;;18.88;100.00;101723.94;5093864;28;20040;-57
2022/07/21 11:09:03;;;;;;;9.93;7.50;;;;;;;18.83;100.00;101717.94;5093709;28;20361;-56
2022/07/21 11:11:33;;;;;;;8.93;7.75;;;;;;;18.82;100.00;101720.63;5093537;28;20116;-57